createdAt,value
2023-06-05T00:00:16.025Z,19.47
2023-06-05T00:02:42.999Z,19.93
2023-06-05T00:05:10.976Z,19.36
2023-06-05T00:07:40.683Z,18.45
2023-06-05T00:10:09.835Z,18.09
2023-06-05T00:12:37.260Z,18.07
2023-06-05T00:15:06.165Z,18.18
2023-06-05T00:17:33.293Z,18.05
2023-06-05T00:20:00.236Z,17.99
2023-06-05T00:22:29.356Z,17.67
2023-06-05T00:24:56.618Z,17.34
2023-06-05T00:27:23.551Z,16.98
2023-06-05T00:29:54.930Z,18.13
2023-06-05T00:32:21.798Z,18.20
2023-06-05T00:34:51.363Z,18.74
2023-06-05T00:37:18.295Z,19.62
2023-06-05T00:39:45.157Z,20.30
2023-06-05T00:42:12.180Z,19.89
2023-06-05T00:44:39.119Z,20.14
2023-06-05T00:47:06.415Z,19.91
2023-06-05T00:49:38.289Z,19.19
2023-06-05T00:52:05.503Z,19.06
2023-06-05T00:54:32.512Z,19.00
2023-06-05T00:56:59.462Z,20.24
2023-06-05T00:59:27.766Z,21.04
2023-06-05T01:01:55.541Z,20.99
2023-06-05T01:04:24.840Z,20.78
2023-06-05T01:06:52.893Z,20.85
2023-06-05T01:09:20.112Z,20.21
2023-06-05T01:11:57.408Z,19.15
2023-06-05T01:14:25.633Z,20.50
2023-06-05T01:16:57.784Z,20.79
2023-06-05T01:19:33.032Z,20.97
2023-06-05T01:22:00.726Z,20.69
2023-06-05T01:24:29.286Z,19.27
2023-06-05T01:26:56.307Z,19.41
2023-06-05T01:29:29.693Z,19.37
2023-06-05T01:32:02.593Z,19.36
2023-06-05T01:34:29.883Z,19.82
2023-06-05T01:36:57.503Z,20.65
2023-06-05T01:39:24.998Z,21.00
2023-06-05T01:41:53.226Z,21.74
2023-06-05T01:47:20.199Z,21.29
2023-06-05T01:58:39.910Z,19.76
2023-06-05T02:01:07.156Z,19.38
2023-06-05T02:03:34.482Z,19.38
2023-06-05T02:06:01.774Z,19.92
2023-06-05T02:08:36.772Z,20.47
2023-06-05T02:11:04.206Z,21.54
2023-06-05T02:13:31.256Z,21.27
2023-06-05T02:15:58.679Z,21.20
2023-06-05T02:18:26.990Z,20.22
2023-06-05T02:20:57.599Z,20.41
2023-06-05T02:23:26.081Z,18.89
2023-06-05T02:25:53.293Z,18.13
2023-06-05T02:28:21.657Z,18.31
2023-06-05T02:30:49.159Z,17.77
2023-06-05T02:33:16.335Z,17.70
2023-06-05T02:35:43.465Z,18.00
2023-06-05T02:38:11.423Z,18.08
2023-06-05T02:40:38.366Z,18.75
2023-06-05T02:43:06.841Z,19.44
2023-06-05T02:45:36.006Z,19.67
2023-06-05T02:48:03.104Z,19.26
2023-06-05T02:50:30.278Z,19.02
2023-06-05T02:52:57.341Z,18.32
2023-06-05T02:55:24.285Z,18.68
2023-06-05T02:57:51.204Z,18.95
2023-06-05T03:00:18.742Z,18.85
2023-06-05T03:02:49.964Z,19.41
2023-06-05T03:05:19.483Z,19.25
2023-06-05T03:07:47.202Z,19.94
2023-06-05T03:10:14.129Z,21.39
2023-06-05T03:12:41.046Z,21.27
2023-06-05T03:15:08.850Z,21.18
2023-06-05T03:17:35.908Z,21.19
2023-06-05T03:20:03.301Z,20.84
2023-06-05T03:22:30.221Z,20.46
2023-06-05T03:24:57.076Z,20.75
2023-06-05T03:27:23.952Z,20.56
2023-06-05T03:29:51.896Z,20.71
2023-06-05T03:32:18.791Z,20.87
2023-06-05T03:34:49.848Z,20.82
2023-06-05T03:37:16.889Z,20.73
2023-06-05T03:39:43.995Z,20.84
2023-06-05T03:42:12.358Z,21.05
2023-06-05T03:44:39.349Z,20.91
2023-06-05T03:47:07.336Z,21.09
2023-06-05T03:49:34.296Z,21.38
2023-06-05T03:52:04.960Z,21.19
2023-06-05T03:54:35.014Z,20.88
2023-06-05T03:57:01.944Z,21.10
2023-06-05T03:59:29.860Z,20.90
2023-06-05T04:01:58.180Z,21.23
2023-06-05T04:04:25.176Z,22.02
2023-06-05T04:06:55.379Z,21.76
2023-06-05T04:09:22.358Z,21.96
2023-06-05T04:11:50.683Z,22.00
2023-06-05T04:14:17.590Z,22.54
2023-06-05T04:16:44.936Z,21.75
2023-06-05T04:19:13.473Z,21.44
2023-06-05T04:21:40.786Z,21.17
2023-06-05T04:24:10.833Z,21.17
2023-06-05T04:26:39.231Z,21.82
2023-06-05T04:29:14.893Z,21.48
2023-06-05T04:31:43.042Z,21.90
2023-06-05T04:34:10.051Z,20.53
2023-06-05T04:36:37.573Z,20.91
2023-06-05T04:39:05.715Z,21.43
2023-06-05T04:41:33.876Z,22.24
2023-06-05T04:44:03.713Z,21.92
2023-06-05T04:46:30.660Z,21.44
2023-06-05T04:48:59.028Z,20.85
2023-06-05T04:51:26.381Z,21.88
2023-06-05T04:53:54.033Z,21.92
2023-06-05T04:56:24.502Z,22.08
2023-06-05T04:58:53.295Z,22.10
2023-06-05T05:01:21.027Z,21.18
2023-06-05T05:03:48.443Z,21.20
2023-06-05T05:06:16.389Z,20.97
2023-06-05T05:08:46.371Z,20.44
2023-06-05T05:11:14.141Z,20.09
2023-06-05T05:13:41.171Z,20.55
2023-06-05T05:16:12.146Z,19.04
2023-06-05T05:18:45.328Z,19.82
2023-06-05T05:21:12.285Z,20.17
2023-06-05T05:23:39.283Z,20.33
2023-06-05T05:26:06.424Z,20.48
2023-06-05T05:28:33.435Z,19.45
2023-06-05T05:31:01.448Z,19.93
2023-06-05T05:33:28.340Z,20.53
2023-06-05T05:35:55.267Z,21.82
2023-06-05T05:38:22.424Z,22.02
2023-06-05T05:40:50.822Z,21.57
2023-06-05T05:43:19.311Z,21.27
2023-06-05T05:45:46.271Z,21.77
2023-06-05T05:48:13.197Z,20.76
2023-06-05T05:50:42.110Z,20.11
2023-06-05T05:53:09.104Z,20.28
2023-06-05T05:55:36.032Z,19.80
2023-06-05T05:58:03.212Z,20.18
2023-06-05T06:00:30.212Z,19.67
2023-06-05T06:02:57.421Z,19.45
2023-06-05T06:05:24.523Z,20.33
2023-06-05T06:07:51.527Z,20.47
2023-06-05T06:10:18.822Z,20.91
2023-06-05T06:12:46.575Z,20.34
2023-06-05T06:15:13.492Z,20.48
2023-06-05T06:17:41.269Z,20.98
2023-06-05T06:20:12.807Z,20.32
2023-06-05T06:22:40.321Z,20.13
2023-06-05T06:25:08.772Z,20.05
2023-06-05T06:27:36.128Z,20.04
2023-06-05T06:30:04.128Z,20.12
2023-06-05T06:32:31.089Z,19.56
2023-06-05T06:34:58.603Z,20.56
2023-06-05T06:37:25.733Z,20.03
2023-06-05T06:39:52.637Z,20.41
2023-06-05T06:42:19.690Z,20.08
2023-06-05T06:44:46.589Z,20.26
2023-06-05T06:47:13.526Z,20.55
2023-06-05T06:49:42.136Z,20.17
2023-06-05T06:52:09.150Z,20.25
2023-06-05T06:54:37.393Z,20.27
2023-06-05T06:57:04.411Z,20.30
2023-06-05T06:59:31.402Z,20.38
2023-06-05T07:02:13.309Z,20.96
2023-06-05T07:04:42.792Z,20.32
2023-06-05T07:07:13.957Z,20.07
2023-06-05T07:09:41.862Z,20.80
2023-06-05T07:12:13.952Z,20.28
2023-06-05T07:14:41.562Z,21.20
2023-06-05T07:17:08.999Z,20.89
2023-06-05T07:19:37.785Z,21.27
2023-06-05T07:22:05.673Z,22.03
2023-06-05T07:24:33.309Z,21.86
2023-06-05T07:27:04.141Z,22.47
2023-06-05T07:29:31.424Z,22.56
2023-06-05T07:32:00.244Z,22.94
2023-06-05T07:34:28.153Z,22.53
2023-06-05T07:36:56.915Z,23.44
2023-06-05T07:39:24.386Z,23.66
2023-06-05T07:41:51.318Z,22.93
2023-06-05T07:44:20.074Z,23.66
2023-06-05T07:46:48.244Z,22.03
2023-06-05T07:49:18.758Z,22.00
2023-06-05T07:51:48.987Z,22.04
2023-06-05T07:54:20.610Z,22.62
2023-06-05T07:56:50.427Z,22.80
2023-06-05T07:59:17.924Z,22.95
2023-06-05T08:01:46.641Z,22.96
2023-06-05T08:04:14.054Z,23.03
2023-06-05T08:06:41.563Z,23.58
2023-06-05T08:09:10.613Z,23.37
2023-06-05T08:11:38.692Z,24.00
2023-06-05T08:14:09.210Z,24.10
2023-06-05T08:16:40.433Z,24.28
2023-06-05T08:19:07.949Z,24.76
2023-06-05T08:21:35.480Z,24.22
2023-06-05T08:24:02.510Z,24.67
2023-06-05T08:26:29.499Z,24.64
2023-06-05T08:28:56.451Z,24.43
2023-06-05T08:31:23.463Z,24.63
2023-06-05T08:33:50.409Z,24.07
2023-06-05T08:36:17.737Z,24.57
2023-06-05T08:38:45.362Z,24.79
2023-06-05T08:41:15.026Z,24.85
2023-06-05T08:43:45.825Z,25.14
2023-06-05T08:46:13.764Z,25.35
2023-06-05T08:48:48.097Z,25.41
2023-06-05T08:51:16.834Z,25.47
2023-06-05T08:53:51.143Z,24.74
2023-06-05T08:56:18.837Z,25.07
2023-06-05T08:58:46.509Z,25.69
2023-06-05T09:01:13.539Z,24.65
2023-06-05T09:03:40.522Z,25.04
2023-06-05T09:06:07.934Z,25.65
2023-06-05T09:08:35.876Z,24.12
2023-06-05T09:11:22.515Z,26.06
2023-06-05T09:13:50.664Z,25.94
2023-06-05T09:16:21.673Z,26.01
2023-06-05T09:19:04.549Z,26.41
2023-06-05T09:21:36.907Z,26.46
2023-06-05T09:24:20.115Z,25.96
2023-06-05T09:26:51.831Z,26.11
2023-06-05T09:29:44.943Z,26.13
2023-06-05T09:32:21.553Z,25.62
2023-06-05T09:35:00.780Z,26.09
2023-06-05T09:37:36.508Z,25.38
2023-06-05T09:40:06.519Z,26.03
2023-06-05T09:42:34.376Z,25.80
2023-06-05T09:45:02.632Z,26.48
2023-06-05T09:47:35.650Z,26.22
2023-06-05T09:50:22.311Z,26.04
2023-06-05T09:52:49.541Z,25.72
2023-06-05T09:55:16.580Z,25.84
2023-06-05T09:57:43.873Z,25.87
2023-06-05T10:00:13.173Z,27.14
2023-06-05T10:02:40.389Z,26.98
2023-06-05T10:05:11.149Z,26.70
2023-06-05T10:07:40.191Z,26.21
2023-06-05T10:10:12.515Z,25.71
2023-06-05T10:12:39.944Z,25.97
2023-06-05T10:15:08.108Z,25.80
2023-06-05T10:17:37.962Z,25.93
2023-06-05T10:20:07.769Z,25.66
2023-06-05T10:22:37.677Z,26.23
2023-06-05T10:25:07.363Z,26.22
2023-06-05T10:27:37.375Z,26.37
2023-06-05T10:30:36.672Z,26.45
2023-06-05T10:33:33.457Z,26.16
2023-06-05T10:36:23.222Z,26.80
2023-06-05T10:38:50.139Z,27.26
2023-06-05T10:41:18.794Z,26.06
2023-06-05T10:43:54.208Z,25.89
2023-06-05T10:46:38.287Z,26.37
2023-06-05T10:49:17.309Z,26.60
2023-06-05T10:51:48.115Z,27.01
2023-06-05T10:54:25.292Z,26.98
2023-06-05T10:56:56.830Z,27.34
2023-06-05T10:59:35.539Z,27.61
2023-06-05T11:02:17.825Z,26.68
2023-06-05T11:04:48.135Z,27.54
2023-06-05T11:07:26.258Z,26.22
2023-06-05T11:10:11.727Z,26.37
2023-06-05T11:12:41.536Z,26.31
2023-06-05T11:15:09.899Z,26.83
2023-06-05T11:17:43.435Z,27.09
2023-06-05T11:20:30.660Z,26.85
2023-06-05T11:23:00.564Z,27.82
2023-06-05T11:25:29.372Z,28.36
2023-06-05T11:27:57.929Z,28.04
2023-06-05T11:33:18.750Z,26.73
2023-06-05T11:35:47.871Z,26.64
2023-06-05T11:38:22.057Z,26.65
2023-06-05T11:40:50.966Z,26.72
2023-06-05T11:43:18.241Z,26.62
2023-06-05T11:45:56.035Z,26.15
2023-06-05T11:48:45.098Z,26.37
2023-06-05T11:51:12.140Z,26.39
2023-06-05T11:53:46.180Z,25.95
2023-06-05T11:56:19.126Z,26.42
2023-06-05T11:58:46.653Z,26.43
2023-06-05T12:01:23.773Z,27.59
2023-06-05T12:04:04.164Z,27.07
2023-06-05T12:06:31.115Z,25.59
2023-06-05T12:09:15.570Z,26.02
2023-06-05T12:11:45.636Z,26.47
2023-06-05T12:14:30.683Z,26.30
2023-06-05T12:16:59.809Z,26.79
2023-06-05T12:19:28.290Z,27.54
2023-06-05T12:22:08.158Z,26.21
2023-06-05T12:24:35.262Z,26.19
2023-06-05T12:27:05.319Z,26.97
2023-06-05T12:35:05.639Z,27.67
2023-06-05T12:37:38.770Z,27.80
2023-06-05T12:40:12.068Z,27.26
2023-06-05T12:42:42.217Z,27.88
2023-06-05T12:45:09.586Z,27.89
2023-06-05T12:47:37.335Z,28.15
2023-06-05T12:50:08.875Z,27.57
2023-06-05T12:52:55.914Z,26.85
2023-06-05T12:55:28.640Z,27.59
2023-06-05T13:00:29.126Z,27.99
2023-06-05T13:02:56.153Z,28.17
2023-06-05T13:05:23.080Z,28.39
2023-06-05T13:07:52.575Z,28.60
2023-06-05T13:10:19.534Z,28.06
2023-06-05T13:12:49.313Z,27.94
2023-06-05T13:15:16.412Z,28.28
2023-06-05T13:17:44.770Z,28.24
2023-06-05T13:20:31.936Z,28.18
2023-06-05T13:22:58.853Z,28.13
2023-06-05T13:25:25.740Z,29.02
2023-06-05T13:27:52.619Z,28.23
2023-06-05T13:30:21.631Z,29.21
2023-06-05T13:32:49.536Z,29.54
2023-06-05T13:35:16.418Z,29.69
2023-06-05T13:37:43.300Z,29.56
2023-06-05T13:40:14.113Z,29.84
2023-06-05T13:42:41.197Z,29.25
2023-06-05T13:45:09.043Z,29.92
2023-06-05T13:47:36.167Z,28.71
2023-06-05T13:50:03.983Z,28.58
2023-06-05T13:52:30.956Z,28.07
2023-06-05T13:54:58.636Z,28.41
2023-06-05T13:57:25.500Z,28.33
2023-06-05T13:59:54.416Z,27.09
2023-06-05T14:02:21.275Z,28.29
2023-06-05T14:04:48.184Z,28.63
2023-06-05T14:07:15.343Z,28.63
2023-06-05T14:09:42.773Z,28.30
2023-06-05T14:12:11.161Z,28.35
2023-06-05T14:14:38.188Z,28.03
2023-06-05T14:17:05.171Z,28.54
2023-06-05T14:19:32.146Z,29.36
2023-06-05T14:21:59.060Z,29.02
2023-06-05T14:24:25.976Z,28.63
2023-06-05T14:26:54.985Z,28.69
2023-06-05T14:29:21.886Z,28.60
2023-06-05T14:31:48.946Z,28.76
2023-06-05T14:34:16.917Z,28.49
2023-06-05T14:36:51.324Z,28.60
2023-06-05T14:39:20.003Z,28.31
2023-06-05T14:41:46.921Z,27.64
2023-06-05T14:44:22.376Z,28.21
2023-06-05T14:46:50.837Z,28.12
2023-06-05T14:49:19.620Z,27.96
2023-06-05T14:51:46.803Z,28.19
2023-06-05T14:54:14.576Z,28.36
2023-06-05T14:56:41.465Z,28.46
2023-06-05T14:59:18.632Z,28.41
2023-06-05T15:01:52.607Z,28.32
2023-06-05T15:04:19.664Z,28.67
2023-06-05T15:06:47.450Z,28.73
2023-06-05T15:09:15.688Z,28.65
2023-06-05T15:11:42.586Z,29.11
2023-06-05T15:14:09.465Z,29.06
2023-06-05T15:16:42.063Z,28.96
2023-06-05T15:19:10.220Z,29.33
2023-06-05T15:21:37.844Z,29.01
2023-06-05T15:24:05.145Z,28.76
2023-06-05T15:26:32.202Z,29.26
2023-06-05T15:28:59.104Z,29.28
2023-06-05T15:31:26.124Z,29.33
2023-06-05T15:33:53.031Z,28.92
2023-06-05T15:36:20.012Z,28.96
2023-06-05T15:38:46.957Z,29.03
2023-06-05T15:41:14.757Z,28.73
2023-06-05T15:43:42.155Z,28.92
2023-06-05T15:46:09.930Z,28.74
2023-06-05T15:48:37.090Z,28.92
2023-06-05T15:51:05.484Z,28.84
2023-06-05T15:53:37.416Z,28.39
2023-06-05T15:56:07.160Z,28.00
2023-06-05T15:58:34.145Z,27.94
2023-06-05T16:01:01.091Z,28.21
2023-06-05T16:03:28.078Z,28.28
2023-06-05T16:05:55.034Z,28.34
2023-06-05T16:08:22.908Z,28.56
2023-06-05T16:10:49.822Z,27.43
2023-06-05T16:13:17.600Z,27.41
2023-06-05T16:15:45.221Z,27.19
2023-06-05T16:18:12.229Z,26.84
2023-06-05T16:20:39.151Z,26.60
2023-06-05T16:23:06.202Z,25.85
2023-06-05T16:25:33.165Z,26.75
2023-06-05T16:28:00.146Z,26.42
2023-06-05T16:30:27.071Z,26.33
2023-06-05T16:32:54.068Z,26.36
2023-06-05T16:35:21.364Z,26.75
2023-06-05T16:37:48.290Z,26.14
2023-06-05T16:40:15.269Z,26.52
2023-06-05T16:42:42.470Z,26.37
2023-06-05T16:45:09.629Z,26.01
2023-06-05T16:47:36.944Z,25.78
2023-06-05T16:50:03.981Z,26.07
2023-06-05T16:52:30.939Z,26.04
2023-06-05T16:54:57.819Z,26.86
2023-06-05T16:57:24.788Z,27.34
2023-06-05T16:59:51.916Z,27.37
2023-06-05T17:02:19.010Z,27.84
2023-06-05T17:04:46.441Z,27.81
2023-06-05T17:07:13.632Z,27.24
2023-06-05T17:09:42.309Z,27.41
2023-06-05T17:12:09.413Z,27.72
2023-06-05T17:14:36.386Z,28.24
2023-06-05T17:17:03.355Z,27.90
2023-06-05T17:19:30.264Z,27.66
2023-06-05T17:21:57.149Z,27.44
2023-06-05T17:24:25.778Z,28.06
2023-06-05T17:26:52.743Z,28.08
2023-06-05T17:29:19.841Z,28.21
2023-06-05T17:31:52.762Z,27.88
2023-06-05T17:34:20.519Z,27.46
2023-06-05T17:36:47.444Z,27.38
2023-06-05T17:39:14.484Z,26.67
2023-06-05T17:41:41.424Z,26.80
2023-06-05T17:44:08.321Z,26.94
2023-06-05T17:46:35.215Z,27.82
2023-06-05T17:49:02.428Z,27.51
2023-06-05T17:51:29.560Z,27.32
2023-06-05T17:53:56.757Z,27.48
2023-06-05T17:56:23.901Z,27.94
2023-06-05T17:58:50.882Z,27.04
2023-06-05T18:01:18.641Z,27.07
2023-06-05T18:03:46.564Z,26.83
2023-06-05T18:06:13.654Z,27.30
2023-06-05T18:08:40.848Z,27.12
2023-06-05T18:11:08.053Z,27.06
2023-06-05T18:13:35.191Z,27.44
2023-06-05T18:16:03.990Z,27.69
2023-06-05T18:18:31.102Z,27.50
2023-06-05T18:20:58.021Z,27.45
2023-06-05T18:23:25.007Z,27.52
2023-06-05T18:25:51.946Z,27.22
2023-06-05T18:28:18.836Z,27.00
2023-06-05T18:30:45.896Z,26.71
2023-06-05T18:33:13.324Z,26.71
2023-06-05T18:35:41.937Z,26.67
2023-06-05T18:38:10.480Z,26.84
2023-06-05T18:40:37.833Z,26.75
2023-06-05T18:43:04.771Z,26.79
2023-06-05T18:45:33.760Z,26.81
2023-06-05T18:48:00.793Z,27.12
2023-06-05T18:50:28.571Z,27.00
2023-06-05T18:52:55.718Z,26.84
2023-06-05T18:55:22.698Z,26.51
2023-06-05T18:57:49.571Z,26.39
2023-06-05T19:00:16.911Z,26.30
2023-06-05T19:02:43.826Z,25.92
2023-06-05T19:05:10.932Z,25.30
2023-06-05T19:07:37.921Z,25.60
2023-06-05T19:10:07.110Z,26.18
2023-06-05T19:12:38.378Z,27.01
2023-06-05T19:15:05.654Z,26.96
2023-06-05T19:17:32.598Z,26.33
2023-06-05T19:19:59.522Z,25.98
2023-06-05T19:22:26.495Z,25.91
2023-06-05T19:24:53.372Z,26.08
2023-06-05T19:27:22.614Z,25.98
2023-06-05T19:29:50.520Z,26.59
2023-06-05T19:32:17.677Z,26.86
2023-06-05T19:34:44.637Z,26.89
2023-06-05T19:37:11.697Z,26.79
2023-06-05T19:39:38.632Z,26.43
2023-06-05T19:42:07.022Z,26.34
2023-06-05T19:44:35.172Z,25.37
2023-06-05T19:47:02.061Z,25.61
2023-06-05T19:49:28.909Z,25.57
2023-06-05T19:51:55.965Z,25.74
2023-06-05T19:54:22.846Z,26.33
2023-06-05T19:56:50.916Z,25.33
2023-06-05T19:59:17.814Z,24.96
2023-06-05T20:01:44.930Z,24.44
2023-06-05T20:04:12.038Z,23.11
2023-06-05T20:06:38.960Z,23.38
2023-06-05T20:09:05.906Z,23.36
2023-06-05T20:11:33.099Z,22.84
2023-06-05T20:13:59.968Z,22.03
2023-06-05T20:16:26.891Z,22.71
2023-06-05T20:18:53.841Z,23.54
2023-06-05T20:21:20.848Z,24.51
2023-06-05T20:23:51.703Z,24.93
2023-06-05T20:26:19.358Z,24.76
2023-06-05T20:28:46.404Z,24.66
2023-06-05T20:31:13.542Z,25.02
2023-06-05T20:33:40.655Z,24.93
2023-06-05T20:36:11.219Z,25.27
2023-06-05T20:38:39.180Z,25.33
2023-06-05T20:41:09.345Z,25.33
2023-06-05T20:43:36.949Z,25.73
2023-06-05T20:46:07.896Z,25.44
2023-06-05T20:48:37.096Z,25.04
2023-06-05T20:51:09.172Z,25.02
2023-06-05T20:53:37.715Z,24.40
2023-06-05T20:56:05.638Z,24.03
2023-06-05T20:58:32.900Z,23.30
2023-06-05T21:00:59.855Z,23.37
2023-06-05T21:03:26.844Z,22.66
2023-06-05T21:05:53.867Z,23.16
2023-06-05T21:08:20.825Z,22.19
2023-06-05T21:10:47.743Z,21.40
2023-06-05T21:13:14.610Z,22.75
2023-06-05T21:15:41.490Z,22.83
2023-06-05T21:18:08.481Z,23.32
2023-06-05T21:20:35.681Z,22.43
2023-06-05T21:23:02.564Z,22.98
2023-06-05T21:25:29.517Z,23.34
2023-06-05T21:27:56.412Z,23.75
2023-06-05T21:30:23.258Z,23.77
2023-06-05T21:32:50.801Z,24.69
2023-06-05T21:35:17.796Z,24.52
2023-06-05T21:37:44.692Z,24.17
2023-06-05T21:40:11.951Z,23.95
2023-06-05T21:42:38.809Z,24.61
2023-06-05T21:45:06.544Z,24.16
2023-06-05T21:47:33.488Z,23.50
2023-06-05T21:50:00.517Z,22.57
2023-06-05T21:52:27.602Z,22.62
2023-06-05T21:54:56.218Z,21.92
2023-06-05T21:57:23.124Z,22.86
2023-06-05T21:59:50.032Z,22.39
2023-06-05T22:02:17.054Z,22.75
2023-06-05T22:04:45.196Z,22.80
2023-06-05T22:07:12.965Z,21.50
2023-06-05T22:09:39.854Z,22.38
2023-06-05T22:12:07.777Z,21.58
2023-06-05T22:14:34.671Z,20.27
2023-06-05T22:17:01.583Z,19.59
2023-06-05T22:19:29.056Z,19.79
2023-06-05T22:21:57.395Z,19.83
2023-06-05T22:24:24.834Z,19.55
2023-06-05T22:26:51.748Z,19.86
2023-06-05T22:29:18.616Z,20.01
2023-06-05T22:31:45.592Z,20.13
2023-06-05T22:34:12.557Z,21.65
2023-06-05T22:36:40.579Z,22.07
2023-06-05T22:39:07.497Z,21.88
2023-06-05T22:41:34.666Z,21.99
2023-06-05T22:44:01.521Z,22.99
2023-06-05T22:46:28.419Z,22.81
2023-06-05T22:48:55.738Z,22.63
2023-06-05T22:51:25.451Z,21.34
2023-06-05T22:53:52.876Z,21.66
2023-06-05T22:56:19.873Z,21.50
2023-06-05T22:58:47.022Z,21.03
2023-06-05T23:01:17.743Z,20.09
2023-06-05T23:03:45.377Z,20.65
2023-06-05T23:06:12.461Z,20.09
2023-06-05T23:08:39.388Z,19.95
2023-06-05T23:11:06.246Z,18.98
2023-06-05T23:13:33.118Z,19.02
2023-06-05T23:16:00.472Z,18.44
2023-06-05T23:18:27.386Z,19.01
2023-06-05T23:20:54.286Z,18.71
2023-06-05T23:23:21.357Z,19.37
2023-06-05T23:25:49.386Z,19.36
2023-06-05T23:28:17.091Z,19.41
2023-06-05T23:30:44.171Z,18.91
2023-06-05T23:33:13.647Z,18.97
2023-06-05T23:35:41.506Z,18.54
2023-06-05T23:38:08.538Z,19.06
2023-06-05T23:40:35.538Z,18.82
2023-06-05T23:43:03.099Z,19.17
2023-06-05T23:45:31.213Z,20.15
2023-06-05T23:47:58.937Z,20.24
2023-06-05T23:50:26.300Z,21.59
2023-06-05T23:52:55.190Z,22.17
2023-06-05T23:55:24.742Z,22.62
2023-06-05T23:57:52.874Z,22.23
